地図

経路データ

SID SEASON NUMBER BASIN SUBBASIN NAME ISO_TIME NATURE LAT LON WMO_WIND WMO_PRES WMO_AGENCY TRACK_TYPE DIST2LAND LANDFALL IFLAG USA_AGENCY USA_ATCF_ID USA_LAT USA_LON USA_RECORD USA_STATUS USA_WIND USA_PRES USA_SSHS USA_R34_NE USA_R34_SE USA_R34_SW USA_R34_NW USA_R50_NE USA_R50_SE USA_R50_SW USA_R50_NW USA_R64_NE USA_R64_SE USA_R64_SW USA_R64_NW USA_POCI USA_ROCI USA_RMW USA_EYE TOKYO_LAT TOKYO_LON TOKYO_GRADE TOKYO_WIND TOKYO_PRES TOKYO_R50_DIR TOKYO_R50_LONG TOKYO_R50_SHORT TOKYO_R30_DIR TOKYO_R30_LONG TOKYO_R30_SHORT TOKYO_LAND CMA_LAT CMA_LON CMA_CAT CMA_WIND CMA_PRES HKO_LAT HKO_LON HKO_CAT HKO_WIND HKO_PRES NEWDELHI_LAT NEWDELHI_LON NEWDELHI_GRADE NEWDELHI_WIND NEWDELHI_PRES NEWDELHI_CI NEWDELHI_DP NEWDELHI_POCI REUNION_LAT REUNION_LON REUNION_TYPE REUNION_WIND REUNION_PRES REUNION_TNUM REUNION_CI REUNION_RMW REUNION_R34_NE REUNION_R34_SE REUNION_R34_SW REUNION_R34_NW REUNION_R50_NE REUNION_R50_SE REUNION_R50_SW REUNION_R50_NW REUNION_R64_NE REUNION_R64_SE REUNION_R64_SW REUNION_R64_NW BOM_LAT BOM_LON BOM_TYPE BOM_WIND BOM_PRES BOM_TNUM BOM_CI BOM_RMW BOM_R34_NE BOM_R34_SE BOM_R34_SW BOM_R34_NW BOM_R50_NE BOM_R50_SE BOM_R50_SW BOM_R50_NW BOM_R64_NE BOM_R64_SE BOM_R64_SW BOM_R64_NW BOM_ROCI BOM_POCI BOM_EYE BOM_POS_METHOD BOM_PRES_METHOD NADI_LAT NADI_LON NADI_CAT NADI_WIND NADI_PRES WELLINGTON_LAT WELLINGTON_LON WELLINGTON_WIND WELLINGTON_PRES DS824_LAT DS824_LON DS824_STAGE DS824_WIND DS824_PRES TD9636_LAT TD9636_LON TD9636_STAGE TD9636_WIND TD9636_PRES TD9635_LAT TD9635_LON TD9635_WIND TD9635_PRES TD9635_ROCI NEUMANN_LAT NEUMANN_LON NEUMANN_CLASS NEUMANN_WIND NEUMANN_PRES MLC_LAT MLC_LON MLC_CLASS MLC_WIND MLC_PRES USA_GUST BOM_GUST BOM_GUST_PER REUNION_GUST REUNION_GUST_PER USA_SEAHGT USA_SEARAD_NE USA_SEARAD_SE USA_SEARAD_SW USA_SEARAD_NW STORM_SPEED STORM_DIR
1993306N10168 1993 83 WP MM JEANA 1993-11-02 00:00:00 NR 10.0000 168.000 main 2210 2170 O_____________ jtwc_wp WP311993 10.0000 168.000 15 -1 12 249
1993306N10168 1993 83 WP MM JEANA 1993-11-02 03:00:00 NR 9.79018 167.450 main 2166 2127 P_____________ WP311993 9.79018 167.450 15 -1 12 250
1993306N10168 1993 83 WP MM JEANA 1993-11-02 06:00:00 NR 9.60000 166.900 main 2127 2097 O_____________ jtwc_wp WP311993 9.60000 166.900 15 -1 11 252
1993306N10168 1993 83 WP MM JEANA 1993-11-02 09:00:00 NR 9.44242 166.350 main 2087 2048 P_____________ WP311993 9.44242 166.350 15 -1 11 255
1993306N10168 1993 83 WP MM JEANA 1993-11-02 12:00:00 NR 9.30000 165.800 main 2048 2007 O_____________ jtwc_wp WP311993 9.30000 165.800 15 -1 11 254
1993306N10168 1993 83 WP MM JEANA 1993-11-02 15:00:00 NR 9.14238 165.258 main 1998 1952 P_____________ WP311993 9.14238 165.258 15 -1 11 255
1993306N10168 1993 83 WP MM JEANA 1993-11-02 18:00:00 NR 9.00000 164.700 main 1952 1905 O_____________ jtwc_wp WP311993 9.00000 164.700 15 -1 12 257
1993306N10168 1993 83 WP MM JEANA 1993-11-02 21:00:00 NR 8.86998 164.100 main 1905 1853 P_____________ WP311993 8.86998 164.100 15 -1 12 260
1993306N10168 1993 83 WP MM JEANA 1993-11-03 00:00:00 NR 8.80000 163.500 main 1853 1818 O_____________ jtwc_wp WP311993 8.80000 163.500 15 -1 11 267
1993306N10168 1993 83 WP MM JEANA 1993-11-03 03:00:00 NR 8.81985 162.950 main 1818 1786 P_____________ WP311993 8.81985 162.950 15 -1 11 275
1993306N10168 1993 83 WP MM JEANA 1993-11-03 06:00:00 NR 8.90000 162.400 main 1786 1755 O_____________ jtwc_wp WP311993 8.90000 162.400 15 -1 12 279
1993306N10168 1993 83 WP MM JEANA 1993-11-03 09:00:00 NR 8.99247 161.800 main 1755 1724 P_____________ WP311993 8.99247 161.800 15 -1 12 280
1993306N10168 1993 83 WP MM JEANA 1993-11-03 12:00:00 NR 9.10000 161.200 main 1724 1701 O_____________ jtwc_wp WP311993 9.10000 161.200 15 -1 12 280
1993306N10168 1993 83 WP MM JEANA 1993-11-03 15:00:00 NR 9.19242 160.635 main 1694 1673 P_____________ WP311993 9.19242 160.635 15 -1 11 280
1993306N10168 1993 83 WP MM JEANA 1993-11-03 18:00:00 NR 9.30000 160.100 main 1673 1654 O_____________ jtwc_wp WP311993 9.30000 160.100 15 -1 11 283
1993306N10168 1993 83 WP MM JEANA 1993-11-03 21:00:00 NR 9.43490 159.592 main 1654 1644 P_____________ WP311993 9.43490 159.592 15 -1 10 287
1993306N10168 1993 83 WP MM JEANA 1993-11-04 00:00:00 NR 9.60000 159.100 main 1644 1631 O_____________ jtwc_wp WP311993 9.60000 159.100 15 -1 10 290
1993306N10168 1993 83 WP MM JEANA 1993-11-04 03:00:00 NR 9.79239 158.607 main 1636 1625 P_____________ WP311993 9.79239 158.607 17 -1 12 291
1993306N10168 1993 83 WP MM JEANA 1993-11-04 06:00:00 NR 10.0400 157.940 main 1620 1610 O__O__________ jtwc_wp WP311993 10.0000 158.100 20 -1 10.2000 157.300 TD 25 1004 14 288
1993306N10168 1993 83 WP MM JEANA 1993-11-04 09:00:00 NR 10.2200 157.288 main 1610 1592 P__P__________ WP311993 10.2074 157.557 20 -1 10.2452 156.750 TD 25 1004 13 284
1993306N10168 1993 83 WP MM JEANA 1993-11-04 12:00:00 NR 10.3571 156.657 main 1602 1580 O__O__________ jtwc_wp WP311993 10.4000 157.000 20 -1 10.3000 156.200 TD 25 1004 12 282
1993306N10168 1993 83 WP MM JEANA 1993-11-04 15:00:00 NR 10.4674 156.054 main 1587 1571 P__P__________ WP311993 10.5574 156.457 20 -1 10.3774 155.650 TD 25 1004 12 282
1993306N10168 1993 83 WP MM JEANA 1993-11-04 18:00:00 NR 10.6000 155.500 main 1574 1567 O__O__________ jtwc_wp WP311993 10.7000 155.900 20 -1 10.5000 155.100 TD 25 1004 12 285
1993306N10168 1993 83 WP MM JEANA 1993-11-04 21:00:00 NR 10.7637 154.921 main 1576 1567 P__P__________ WP311993 10.8500 155.300 20 -1 10.6774 154.542 TD 25 1004 12 285
1993306N10168 1993 83 WP MM JEANA 1993-11-05 00:00:00 TS 10.9111 154.344 1004 tokyo main 1569 1567 OO_O__________ jtwc_wp WP311993 11.0000 154.700 20 -1 10.6000 154.300 2 1004 0 0 0 10.9000 154.000 TD 25 1004 11 287
1993306N10168 1993 83 WP MM JEANA 1993-11-05 03:00:00 TS 11.0844 153.832 main 1579 1577 PP_P__________ WP311993 11.1499 154.142 20 -1 10.8076 153.903 2 1004 0 0 11.1574 153.485 TD 25 1004 10 289
1993306N10168 1993 83 WP MM JEANA 1993-11-05 06:00:00 TS 11.2545 153.355 1004 tokyo main 1592 1587 OO_O__________ jtwc_wp WP311993 11.3000 153.600 20 -1 11.0000 153.500 2 1004 0 0 0 11.4000 153.000 TD 25 1004 10 289
1993306N10168 1993 83 WP MM JEANA 1993-11-05 09:00:00 TS 11.3958 152.892 main 1595 1592 PP_P__________ WP311993 11.4499 153.042 22 -1 11.1650 153.092 2 1004 0 0 11.5724 152.542 TD 25 1004 9 287
1993306N10168 1993 83 WP MM JEANA 1993-11-05 12:00:00 TS 11.5333 152.433 1004 tokyo main 1599 1599 OO_O__________ jtwc_wp WP311993 11.6000 152.500 25 -1 11.3000 152.700 2 1004 0 0 0 11.7000 152.100 TD 25 1004 9 287
1993306N10168 1993 83 WP MM JEANA 1993-11-05 15:00:00 TS 11.6549 152.002 main 1618 1614 PP_P__________ WP311993 11.7574 151.992 25 -1 11.3923 152.365 2 1004 0 0 11.8149 151.650 TD 25 1004 9 285
1993306N10168 1993 83 WP MM JEANA 1993-11-05 18:00:00 TS 11.7667 151.567 1004 tokyo main 1625 1616 OO_O__________ jtwc_wp WP311993 11.9000 151.500 25 -1 11.5000 152.000 2 1004 0 0 0 11.9000 151.200 TD 25 1004 9 285
1993306N10168 1993 83 WP MM JEANA 1993-11-05 21:00:00 TS 11.8858 151.093 main 1621 1613 PP_P__________ WP311993 12.0074 151.000 25 -1 11.7000 151.523 2 1004 0 0 11.9499 150.757 TD 25 1004 10 284
1993306N10168 1993 83 WP MM JEANA 1993-11-06 00:00:00 TS 12.0000 150.600 1004 tokyo main 1618 1612 OO_O__________ jtwc_wp WP311993 12.1000 150.500 25 -1 11.9000 151.000 2 1004 0 0 0 12.0000 150.300 TD 25 1004 10 282
1993306N10168 1993 83 WP MM JEANA 1993-11-06 03:00:00 TS 12.0974 150.097 main 1618 1612 PP_P__________ WP311993 12.1924 150.000 25 -1 12.0224 150.492 2 1004 0 0 12.0775 149.800 TD 25 1004 10 282
1993306N10168 1993 83 WP MM JEANA 1993-11-06 06:00:00 TS 12.2000 149.600 1004 tokyo main 1620 1617 OO_O__________ jtwc_wp WP311993 12.3000 149.500 25 -1 12.1000 150.000 2 1004 0 0 0 12.2000 149.300 TD 25 1004 10 283
1993306N10168 1993 83 WP MM JEANA 1993-11-06 09:00:00 TS 12.3182 149.133 main 1624 1623 PP_P__________ WP311993 12.4424 149.007 22 -1 12.1423 149.557 2 1004 0 0 12.3699 148.835 TD 25 1004 9 286
1993306N10168 1993 83 WP MM JEANA 1993-11-06 12:00:00 TS 12.4462 148.692 1004 tokyo main 1630 1630 OOOO__________ jtwc_wp WP311993 12.6000 148.500 20 -1 12.2000 149.100 2 1004 0 0 0 12.2000 149.000 1 29 1004 12.6000 148.400 TD 25 1004 9 289
1993306N10168 1993 83 WP MM JEANA 1993-11-06 15:00:00 TS 12.6120 148.237 main 1649 1649 PPPP__________ WP311993 12.7499 147.957 20 -1 12.3197 148.602 2 1004 0 0 12.3303 148.513 1 29 1004 12.9073 148.015 TD 25 1004 10 290
1993306N10168 1993 83 WP MM JEANA 1993-11-06 18:00:00 TS 12.7933 147.733 1004 tokyo main 1669 1669 OOOO__________ jtwc_wp WP311993 12.9000 147.400 20 -1 12.5000 148.000 2 1004 0 0 0 12.5000 148.000 1 29 1004 13.2000 147.600 TD 25 1004 11 289
1993306N10168 1993 83 WP MM JEANA 1993-11-06 21:00:00 TS 12.9824 147.148 main 1691 1691 PPPP__________ WP311993 13.0574 146.850 20 -1 12.7351 147.230 2 1005 0 0 12.7345 147.425 1 29 1004 13.4024 147.088 TD 27 1003 13 287
1993306N10168 1993 83 WP MM JEANA 1993-11-07 00:00:00 TS 13.1750 146.475 1006 tokyo main 1714 1714 OOOO__________ jtwc_wp WP311993 13.2000 146.300 20 -1 13.0000 146.400 2 1006 0 0 0 13.0000 146.700 1 29 1004 13.5000 146.500 TD 30 1002 14 284
1993306N10168 1993 83 WP MM JEANA 1993-11-07 03:00:00 TS 13.3371 145.719 main 1728 1728 PPPP__________ WP311993 13.3073 145.757 20 -1 13.2800 145.598 2 1006 0 0 13.2810 145.663 1 29 1004 13.4800 145.857 TD 30 1002 15 281
1993306N10168 1993 83 WP MM JEANA 1993-11-07 06:00:00 TS 13.4500 145.000 1006 tokyo main 1756 1756 OOOO__________ jtwc_wp WP311993 13.4000 145.200 20 -1 13.5000 144.900 2 1006 0 0 0 13.5000 144.700 1 29 1004 13.4000 145.200 TD 30 1002 12 277
1993306N10168 1993 83 WP MM JEANA 1993-11-07 09:00:00 TS 13.4965 144.459 main 1763 1763 PPPP__________ WP311993 13.4999 144.607 22 -1 13.5721 144.412 2 1006 0 0 13.5867 144.225 1 29 1004 13.3273 144.592 TD 30 1002 10 274
1993306N10168 1993 83 WP MM JEANA 1993-11-07 12:00:00 TS 13.5250 143.975 1006 tokyo main 1771 1771 OOOO__________ jtwc_wp WP311993 13.6000 144.000 25 -1 13.6000 144.000 2 1006 0 0 0 13.6000 143.900 1 29 1004 13.3000 144.000 TD 30 1002 10 275
1993306N10168 1993 83 WP MM JEANA 1993-11-07 15:00:00 TS 13.5774 143.427 main 1794 1783 PPPP__________ WP311993 13.6923 143.407 25 -1 13.6774 143.507 2 1005 0 0 13.5700 143.407 1 29 1004 13.3700 143.385 TD 30 1002 11 278
1993306N10168 1993 83 WP MM JEANA 1993-11-07 18:00:00 TS 13.6750 142.875 1004 tokyo main 1790 1781 OOOO__________ jtwc_wp WP311993 13.8000 142.800 25 -1 13.8000 143.000 2 1004 0 0 0 13.6000 142.900 1 29 1004 13.5000 142.800 TD 30 1002 11 284
1993306N10168 1993 83 WP MM JEANA 1993-11-07 21:00:00 TS 13.8417 142.354 main 1785 1780 PPPP__________ WP311993 13.9274 142.150 27 -1 13.9774 142.507 2 1004 0 0 13.8348 142.458 1 29 1004 13.6272 142.300 TD 30 1002 11 290
1993306N10168 1993 83 WP MM JEANA 1993-11-08 00:00:00 TS 14.0500 141.825 1004 tokyo main 1771 1720 OOOO__________ jtwc_wp WP311993 14.1000 141.500 30 -1 14.2000 142.000 2 1004 0 0 0 14.1000 142.000 1 29 1004 13.8000 141.800 TD 30 1002 11 291
1993306N10168 1993 83 WP MM JEANA 1993-11-08 03:00:00 TS 14.2399 141.263 main 1720 1661 PPPP__________ WP311993 14.3197 140.900 30 -1 14.4349 141.465 2 1004 0 0 14.1924 141.480 1 29 1004 14.0125 141.207 TD 30 1002 12 291
1993306N10168 1993 83 WP MM JEANA 1993-11-08 06:00:00 TS 14.4750 140.675 1004 tokyo main 1663 1604 OOOO__________ jtwc_wp WP311993 14.6000 140.300 30 -1 14.7000 140.900 2 1004 0 0 0 14.3000 140.900 1 29 1004 14.3000 140.600 TD 30 1002 13 295
1993306N10168 1993 83 WP MM JEANA 1993-11-08 09:00:00 TS 14.7748 140.075 main 1605 1547 PPPP__________ WP311993 14.9199 139.650 32 -1 14.9624 140.307 2 1003 0 0 14.5472 140.287 1 29 1002 14.6697 140.057 TD 30 1002 14 300
1993306N10168 1993 83 WP MM JEANA 1993-11-08 12:00:00 TS 15.1500 139.450 1002 tokyo main 1549 1483 OOOO__________ jtwc_wp WP311993 15.3000 139.000 35 0 15.3000 139.700 2 1002 0 0 0 14.9000 139.600 1 29 1000 15.1000 139.500 TD 30 1002 15 303
1993306N10168 1993 83 WP MM JEANA 1993-11-08 15:00:00 TS 15.5675 138.787 main 1485 1434 PPPP__________ WP311993 15.7349 138.377 35 0 15.7471 139.129 2 1002 0 0 15.2678 138.785 1 29 1000 15.5200 138.857 TD 32 998 16 306
1993306N10168 1993 83 WP MM JEANA 1993-11-08 18:00:00 TS 16.0750 138.125 1002 tokyo main 1427 1386 OOOO__________ jtwc_wp WP311993 16.2000 137.800 35 0 16.3000 138.500 2 1002 0 0 0 15.8000 138.000 1 29 1000 16.0000 138.200 TS 35 995 17 312
1993306N10168 1993 83 WP MM JEANA 1993-11-08 21:00:00 TS 16.7332 137.459 main 1386 1352 PPPP__________ WP311993 16.6574 137.255 35 0 16.9958 137.641 2 1000 0 0 16.6722 137.391 1 33 997 16.6076 137.548 TS 35 995 17 317
1993306N10168 1993 83 WP MM JEANA 1993-11-09 00:00:00 TS 17.3500 136.900 35 998 tokyo main 1356 1332 OOOO__________ jtwc_wp WP311993 17.1000 136.800 35 0 17.6000 136.900 3 35 998 0 8 180 120 0 17.5000 136.900 2 38 995 17.2000 137.000 TS 35 995 13 318
1993306N10168 1993 83 WP MM JEANA 1993-11-09 03:00:00 TS 17.7291 136.532 main 1332 1323 PPPP__________ WP311993 17.5224 136.447 37 0 17.8594 136.609 3 37 997 0 8 180 120 17.8899 136.432 2 38 995 17.6447 136.640 TS 35 995 9 319
1993306N10168 1993 83 WP MM JEANA 1993-11-09 06:00:00 TS 18.0000 136.300 40 996 tokyo main 1328 1320 OOOO__________ jtwc_wp WP311993 17.9000 136.200 40 0 18.0000 136.500 3 40 996 0 8 180 120 0 18.1000 136.100 2 38 995 18.0000 136.400 TS 35 995 7 324
1993306N10168 1993 83 WP MM JEANA 1993-11-09 09:00:00 TS 18.2843 136.102 main 1326 1322 PPPP__________ WP311993 18.2149 136.005 40 0 18.2425 136.285 3 40 996 0 8 180 120 18.3649 135.940 2 38 995 18.3149 136.177 TS 35 995 6 331
1993306N10168 1993 83 WP MM JEANA 1993-11-09 12:00:00 TS 18.5500 135.975 40 996 tokyo main 1333 1324 OOOO__________ jtwc_wp WP311993 18.5000 135.900 40 0 18.5000 136.100 3 40 996 0 1 180 120 0 18.6000 135.900 2 38 995 18.6000 136.000 TS 35 995 6 340
1993306N10168 1993 83 WP MM JEANA 1993-11-09 15:00:00 TS 18.8125 135.894 main 1336 1336 PPPP__________ WP311993 18.8000 135.877 42 0 18.7500 135.977 3 40 996 0 1 180 120 18.8000 135.892 2 38 995 18.9000 135.827 TS 35 995 5 347
1993306N10168 1993 83 WP MM JEANA 1993-11-09 18:00:00 TS 19.0750 135.850 40 996 tokyo main 1345 1345 OOOO__________ jtwc_wp WP311993 19.1000 135.900 45 0 19.0000 135.900 3 40 996 0 1 180 120 0 19.0000 135.900 2 38 995 19.2000 135.700 TS 35 995 5 350
1993306N10168 1993 83 WP MM JEANA 1993-11-09 21:00:00 TS 19.3387 135.803 main 1356 1356 PPPP__________ WP311993 19.3925 135.893 45 0 19.2425 135.835 3 40 996 0 1 190 120 19.2200 135.857 2 38 995 19.5000 135.627 TS 35 995 6 353
1993306N10168 1993 83 WP MM JEANA 1993-11-10 00:00:00 TS 19.6250 135.775 40 996 tokyo main 1370 1340 OOOO__________ jtwc_wp WP311993 19.7000 135.900 45 0 19.5000 135.800 3 40 996 0 2 200 120 0 19.5000 135.800 2 38 995 19.8000 135.600 TS 35 995 6 356
1993306N10168 1993 83 WP MM JEANA 1993-11-10 03:00:00 TS 19.9512 135.754 main 1330 1299 PPPP__________ WP311993 20.0575 135.928 47 0 19.8000 135.785 3 42 994 0 2 200 120 19.8475 135.735 2 43 992 20.1000 135.570 TS 40 992 7 0
1993306N10168 1993 83 WP MM JEANA 1993-11-10 06:00:00 TS 20.3000 135.775 45 992 tokyo main 1299 1268 OOOO__________ jtwc_wp WP311993 20.4000 136.000 50 0 20.1000 135.800 3 45 992 0 2 200 120 0 20.3000 135.700 3 48 990 20.4000 135.600 TS 45 990 7 6
1993306N10168 1993 83 WP MM JEANA 1993-11-10 09:00:00 TS 20.6687 135.838 main 1258 1231 PPPP__________ WP311993 20.6725 136.120 50 0 20.3575 135.828 3 45 992 0 2 200 120 20.9299 135.690 3 48 990 20.7150 135.712 TS 45 990 7 15
1993306N10168 1993 83 WP MM JEANA 1993-11-10 12:00:00 TS 21.0000 135.975 45 992 tokyo main 1235 1219 OOOO__________ jtwc_wp WP311993 20.9000 136.300 50 0 20.6000 135.900 3 45 992 0 2 200 120 0 21.5000 135.800 3 48 990 21.0000 135.900 TS 45 990 7 30
1993306N10168 1993 83 WP MM JEANA 1993-11-10 15:00:00 TS 21.2425 136.199 main 1223 1212 PPPP__________ WP311993 21.1150 136.535 50 0 20.8500 136.020 3 45 992 0 2 175 135 21.7827 136.112 3 48 990 21.2225 136.128 TS 45 990 6 48
1993306N10168 1993 83 WP MM JEANA 1993-11-10 18:00:00 TS 21.4250 136.475 45 992 tokyo main 1217 1207 OOOO__________ jtwc_wp WP311993 21.3000 136.800 50 0 21.1000 136.200 3 45 992 0 9 150 150 0 21.9000 136.500 3 48 990 21.4000 136.400 TS 45 990 6 55
1993306N10168 1993 83 WP MM JEANA 1993-11-10 21:00:00 TS 21.5974 136.739 main 1207 1202 PPPP__________ WP311993 21.4649 137.043 50 0 21.3725 136.435 3 45 992 0 9 150 150 21.9797 136.778 3 48 990 21.5725 136.700 TS 45 990 6 60
1993306N10168 1993 83 WP MM JEANA 1993-11-11 00:00:00 TS 21.7250 137.025 45 992 tokyo main 1212 1208 OOOO__________ jtwc_wp WP311993 21.6000 137.300 50 0 21.6000 136.700 3 45 992 0 9 150 150 0 22.0000 137.100 3 48 990 21.7000 137.000 TS 45 990 6 70
1993306N10168 1993 83 WP MM JEANA 1993-11-11 03:00:00 TS 21.8025 137.343 main 1218 1218 PPPP__________ WP311993 21.7150 137.600 47 0 21.7299 136.943 3 45 992 0 9 135 135 22.0001 137.570 3 48 990 21.7649 137.258 TS 42 992 6 78
1993306N10168 1993 83 WP MM JEANA 1993-11-11 06:00:00 TS 21.8500 137.675 45 992 tokyo main 1231 1231 OOOO__________ jtwc_wp WP311993 21.8000 137.900 45 0 21.8000 137.200 3 45 992 0 9 120 120 0 22.0000 138.100 3 48 990 21.8000 137.500 TS 40 995 6 80
1993306N10168 1993 83 WP MM JEANA 1993-11-11 09:00:00 TS 21.9056 138.002 main 1246 1246 PPPP__________ WP311993 21.8650 138.165 45 0 21.8575 137.493 3 42 994 0 9 120 120 22.0498 138.600 3 48 990 21.8500 137.750 TS 37 995 6 81
1993306N10168 1993 83 WP MM JEANA 1993-11-11 12:00:00 TS 21.9500 138.325 40 996 tokyo main 1252 1252 OOOO__________ jtwc_wp WP311993 21.9000 138.400 45 0 21.9000 137.800 3 40 996 0 9 120 120 0 22.1000 139.100 3 48 990 21.9000 138.000 TS 35 995 6 83
1993306N10168 1993 83 WP MM JEANA 1993-11-11 15:00:00 TS 21.9768 138.641 main 1269 1269 PPPP__________ WP311993 21.9075 138.615 42 0 21.9499 138.093 3 40 996 0 9 110 110 22.1000 139.615 3 43 992 21.9499 138.243 TS 35 995 6 85
1993306N10168 1993 83 WP MM JEANA 1993-11-11 18:00:00 TS 22.0000 138.950 40 996 tokyo main 1291 1291 OOOO__________ jtwc_wp WP311993 21.9000 138.800 40 0 22.0000 138.400 3 40 996 0 9 100 100 0 22.1000 140.100 2 38 995 22.0000 138.500 TS 35 995 6 85
1993306N10168 1993 83 WP MM JEANA 1993-11-11 21:00:00 TS 22.0260 139.246 main 1303 1303 PPPP__________ WP311993 21.9000 138.958 37 0 22.0192 138.713 3 37 997 0 9 80 80 22.1424 140.530 2 38 995 22.0424 138.785 TS 32 997 6 83
1993306N10168 1993 83 WP MM JEANA 1993-11-12 00:00:00 TS 22.0733 139.580 35 998 tokyo main 1315 1313 OOOO__________ jtwc_wp WP311993 21.9000 139.100 35 0 22.1000 139.100 3 35 998 0 9 60 60 0 22.2000 140.900 2 38 995 22.1000 139.100 TD 30 1000 7 79
1993306N10168 1993 83 WP MM JEANA 1993-11-12 03:00:00 TS 22.1557 139.941 1000 tokyo main 1313 1312 POPP__________ WP311993 21.9075 139.250 32 -1 22.3000 139.600 2 1000 0 0 0 22.2424 141.223 2 38 995 22.1902 139.442 TD 27 1002 6 71
1993306N10168 1993 83 WP MM JEANA 1993-11-12 06:00:00 TS 22.2636 140.191 1002 tokyo main 1312 1304 OOOO__________ jtwc_wp WP311993 21.9000 139.400 30 -1 22.5000 139.900 2 1002 0 0 0 22.3000 141.500 2 38 995 22.3000 139.800 TD 25 1005 5 51
1993306N10168 1993 83 WP MM JEANA 1993-11-12 09:00:00 TS 22.4523 140.330 main 1294 1262 PPP___________ WP311993 21.8600 139.550 27 -1 22.7795 140.008 2 1003 0 0 22.3901 141.755 2 33 997 TD 5 10
1993306N10168 1993 83 WP MM JEANA 1993-11-12 12:00:00 TS 22.7833 140.283 1004 tokyo main 1262 1189 OOO___________ jtwc_wp WP311993 21.8000 139.700 25 -1 23.1000 140.000 2 1004 0 0 0 22.5000 142.000 1 29 1000 10 343
1993306N10168 1993 83 WP MM JEANA 1993-11-12 15:00:00 TS 23.3925 140.022 main 1189 1157 _P____________ WP311993 -1 23.3925 140.022 2 1005 0 0 1 10 344
1993306N10168 1993 83 WP MM JEANA 1993-11-12 18:00:00 TS 23.7000 140.000 1006 tokyo main 1157 1122 _O____________ -1 23.7000 140.000 2 1006 0 0 0 6 350
1993306N10168 1993 83 WP MM JEANA 1993-11-12 21:00:00 TS 24.0200 139.908 main 1122 1076 _P____________ -1 24.0200 139.908 2 1007 0 0 7 345
1993306N10168 1993 83 WP MM JEANA 1993-11-13 00:00:00 TS 24.4000 139.800 1008 tokyo main 1076 1031 _O____________ -1 24.4000 139.800 2 1008 0 0 0 8 348
1993306N10168 1993 83 WP MM JEANA 1993-11-13 03:00:00 TS 24.8100 139.728 main 1031 969 _P____________ -1 24.8100 139.728 2 1008 0 0 10 355
1993306N10168 1993 83 WP MM JEANA 1993-11-13 06:00:00 TS 25.4000 139.700 1008 tokyo main 969 886 _O____________ -1 25.4000 139.700 2 1008 0 0 0 15 359
1993306N10168 1993 83 WP MM JEANA 1993-11-13 09:00:00 TS 26.2974 139.691 main 876 790 _P____________ -1 26.2974 139.691 2 1008 0 0 19 3
1993306N10168 1993 83 WP MM JEANA 1993-11-13 12:00:00 TS 27.3000 139.800 1008 tokyo main 780 714 _O____________ -1 27.3000 139.800 2 1008 0 0 0 19 11
1993306N10168 1993 83 WP MM JEANA 1993-11-13 15:00:00 TS 28.1928 140.093 main 710 644 _P____________ -1 28.1928 140.093 2 1008 0 0 18 20
1993306N10168 1993 83 WP MM JEANA 1993-11-13 18:00:00 TS 29.0000 140.500 1008 tokyo main 644 _O____________ -1 29.0000 140.500 2 1008 0 0 0 18 24

デジタル台風データ・検索

IBTrACS Databaseについて

本データベースは、米国NOAAが公開する1842年以降の世界の熱帯低気圧のベストトラックデータアーカイブInternational Best Track Archive for Climate Stewardship (IBTrACS)を、ウェブで閲覧しやすい形式に変換したものです。

最終更新日:2021-10-25